createdAt,value
2022-11-07T00:00:13.291Z,79
2022-11-07T00:00:33.344Z,79.09
2022-11-07T00:00:53.394Z,79.05
2022-11-07T00:01:13.466Z,79.21
2022-11-07T00:01:33.635Z,79.21
2022-11-07T00:01:53.748Z,79.22
2022-11-07T00:02:13.881Z,79.13
2022-11-07T00:02:33.862Z,78.99
2022-11-07T00:02:53.886Z,79.03
2022-11-07T00:03:14.332Z,78.98
2022-11-07T00:03:33.917Z,79.07
2022-11-07T00:03:53.987Z,78.97
2022-11-07T00:04:14.127Z,78.95
2022-11-07T00:04:34.106Z,78.98
2022-11-07T00:04:54.171Z,79.05
2022-11-07T00:05:14.208Z,79.12
2022-11-07T00:05:34.290Z,79.04
2022-11-07T00:05:54.391Z,79.08
2022-11-07T00:06:14.428Z,79.09
2022-11-07T00:06:34.526Z,78.83
2022-11-07T00:06:54.585Z,78.71
2022-11-07T00:07:14.632Z,78.7
2022-11-07T00:07:34.681Z,78.63
2022-11-07T00:07:54.754Z,78.8
2022-11-07T00:08:14.838Z,78.81
2022-11-07T00:08:34.901Z,78.69
2022-11-07T00:08:54.963Z,78.71
2022-11-07T00:09:15.026Z,78.62
2022-11-07T00:09:35.057Z,78.75
2022-11-07T00:09:55.157Z,78.87
2022-11-07T00:10:15.244Z,79.03
2022-11-07T00:10:35.272Z,78.84
2022-11-07T00:10:55.325Z,78.91
2022-11-07T00:11:15.387Z,78.7
2022-11-07T00:11:35.564Z,78.55
2022-11-07T00:11:55.564Z,78.55
2022-11-07T00:12:15.621Z,78.74
2022-11-07T00:12:35.678Z,78.66
2022-11-07T00:12:55.751Z,78.74
2022-11-07T00:13:16.225Z,78.68
2022-11-07T00:13:35.896Z,78.67
2022-11-07T00:13:55.950Z,78.72
2022-11-07T00:14:16.042Z,78.76
2022-11-07T00:14:36.103Z,78.75
2022-11-07T00:14:56.155Z,78.63
2022-11-07T00:15:16.227Z,78.74
2022-11-07T00:15:36.297Z,78.71
2022-11-07T00:15:56.346Z,78.73
2022-11-07T00:16:16.418Z,78.67
2022-11-07T00:16:36.486Z,78.68
2022-11-07T00:16:56.544Z,78.48
2022-11-07T00:17:16.610Z,78.44
2022-11-07T00:17:36.680Z,78.41
2022-11-07T00:17:56.743Z,78.53
2022-11-07T00:18:16.818Z,78.49
2022-11-07T00:18:36.875Z,78.26
2022-11-07T00:18:56.934Z,78.31
2022-11-07T00:19:16.990Z,78.36
2022-11-07T00:19:37.053Z,78.3
2022-11-07T00:19:57.117Z,78.36
2022-11-07T00:20:17.212Z,78.48
2022-11-07T00:20:37.280Z,78.57
2022-11-07T00:20:57.350Z,78.46
2022-11-07T00:21:17.388Z,78.36
2022-11-07T00:21:37.491Z,78.37
2022-11-07T00:21:57.562Z,78.53
2022-11-07T00:22:17.628Z,78.66
2022-11-07T00:22:37.691Z,78.55
2022-11-07T00:22:57.739Z,78.61
2022-11-07T00:23:17.799Z,78.59
2022-11-07T00:23:37.867Z,78.58
2022-11-07T00:23:57.945Z,78.72
2022-11-07T00:24:18.034Z,78.77
2022-11-07T00:24:38.081Z,78.61
2022-11-07T00:24:58.162Z,78.73
2022-11-07T00:25:18.257Z,78.58
2022-11-07T00:25:38.312Z,78.55
2022-11-07T00:25:58.385Z,78.58
2022-11-07T00:26:18.449Z,78.66
2022-11-07T00:26:38.536Z,78.66
2022-11-07T00:26:58.699Z,78.87
2022-11-07T00:27:18.795Z,78.68
2022-11-07T00:27:38.875Z,78.54
2022-11-07T00:27:58.805Z,78.47
2022-11-07T00:28:18.933Z,78.52
2022-11-07T00:28:38.929Z,78.53
2022-11-07T00:28:59.006Z,78.52
2022-11-07T00:29:19.063Z,78.53
2022-11-07T00:29:39.197Z,78.51
2022-11-07T00:29:59.221Z,78.36
2022-11-07T00:30:19.269Z,78.31
2022-11-07T00:30:39.310Z,78.41
2022-11-07T00:30:59.399Z,78.39
2022-11-07T00:31:19.567Z,78.45
2022-11-07T00:31:39.527Z,78.41
2022-11-07T00:31:59.646Z,78.54
2022-11-07T00:32:19.675Z,78.71
2022-11-07T00:32:39.742Z,78.67
2022-11-07T00:33:00.424Z,78.68
2022-11-07T00:33:19.955Z,78.61
2022-11-07T00:33:39.955Z,78.55
2022-11-07T00:34:00.042Z,78.6
2022-11-07T00:34:20.104Z,78.59
2022-11-07T00:34:40.178Z,78.56
2022-11-07T00:35:00.225Z,78.51
2022-11-07T00:35:20.331Z,78.49
2022-11-07T00:35:40.406Z,78.56
2022-11-07T00:36:00.461Z,78.52
2022-11-07T00:36:20.510Z,78.55
2022-11-07T00:36:40.597Z,78.52
2022-11-07T00:37:00.658Z,78.53
2022-11-07T00:37:20.728Z,78.53
2022-11-07T00:37:40.782Z,78.53
2022-11-07T00:38:00.865Z,78.64
2022-11-07T00:38:20.941Z,78.65
2022-11-07T00:38:41.021Z,78.7
2022-11-07T00:39:01.096Z,78.74
2022-11-07T00:39:21.176Z,78.58
2022-11-07T00:39:41.244Z,78.68
2022-11-07T00:40:01.298Z,78.66
2022-11-07T00:40:21.387Z,78.55
2022-11-07T00:40:41.452Z,78.54
2022-11-07T00:41:01.511Z,78.57
2022-11-07T00:41:21.596Z,78.6
2022-11-07T00:41:41.644Z,78.72
2022-11-07T00:42:01.704Z,78.74
2022-11-07T00:42:21.767Z,78.63
2022-11-07T00:42:41.833Z,78.61
2022-11-07T00:43:01.883Z,78.74
2022-11-07T00:43:21.974Z,78.8
2022-11-07T00:43:42.054Z,78.8
2022-11-07T00:44:02.126Z,78.78
2022-11-07T00:44:22.194Z,78.82
2022-11-07T00:44:42.252Z,78.76
2022-11-07T00:45:02.312Z,78.85
2022-11-07T00:45:22.380Z,78.81
2022-11-07T00:45:42.431Z,78.88
2022-11-07T00:46:02.494Z,78.95
2022-11-07T00:46:22.587Z,79.07
2022-11-07T00:46:42.636Z,79.01
2022-11-07T00:47:02.718Z,79.05
2022-11-07T00:47:22.803Z,79.08
2022-11-07T00:47:42.870Z,79.13
2022-11-07T00:48:02.919Z,79.15
2022-11-07T00:48:23.006Z,79.11
2022-11-07T00:48:43.075Z,79.07
2022-11-07T00:49:03.123Z,79.04
2022-11-07T00:49:23.171Z,79.13
2022-11-07T00:49:43.247Z,79.18
2022-11-07T00:50:03.297Z,79.16
2022-11-07T00:50:23.359Z,79.17
2022-11-07T00:50:43.440Z,79.24
2022-11-07T00:51:03.521Z,79.32
2022-11-07T00:51:23.561Z,79.35
2022-11-07T00:51:43.636Z,79.38
2022-11-07T00:52:03.726Z,79.25
2022-11-07T00:52:23.791Z,79.3
2022-11-07T00:52:43.853Z,79.36
2022-11-07T00:53:03.934Z,79.36
2022-11-07T00:53:24.025Z,79.52
2022-11-07T00:53:44.071Z,79.52
2022-11-07T00:54:04.151Z,79.45
2022-11-07T00:54:24.212Z,79.51
2022-11-07T00:54:44.277Z,79.43
2022-11-07T00:55:04.344Z,79.48
2022-11-07T00:55:24.488Z,79.37
2022-11-07T00:55:44.468Z,79.32
2022-11-07T00:56:04.535Z,79.33
2022-11-07T00:56:24.587Z,79.27
2022-11-07T00:56:44.653Z,79.29
2022-11-07T00:57:04.708Z,79.26
2022-11-07T00:57:24.780Z,79.09
2022-11-07T00:57:44.833Z,79.14
2022-11-07T00:58:06.634Z,79.2
2022-11-07T00:58:24.947Z,79.23
2022-11-07T00:58:45.049Z,79.1
2022-11-07T00:59:05.111Z,79.22
2022-11-07T00:59:25.161Z,79.41
2022-11-07T00:59:45.244Z,79.35
2022-11-07T01:00:05.303Z,79.2
2022-11-07T01:00:25.373Z,79.19
2022-11-07T01:00:45.455Z,79.26
2022-11-07T01:01:05.503Z,79.26
2022-11-07T01:01:25.847Z,79.16
2022-11-07T01:01:45.791Z,79.29
2022-11-07T01:02:05.811Z,79.3
2022-11-07T01:02:25.894Z,79.32
2022-11-07T01:02:45.991Z,79.32
2022-11-07T01:03:05.886Z,79.37
2022-11-07T01:03:25.946Z,79.32
2022-11-07T01:03:46.005Z,79.31
2022-11-07T01:04:06.092Z,79.44
2022-11-07T01:04:26.128Z,79.47
2022-11-07T01:04:46.202Z,79.42
2022-11-07T01:05:06.267Z,79.4
2022-11-07T01:05:26.317Z,79.4
2022-11-07T01:05:46.411Z,79.35
2022-11-07T01:06:06.489Z,79.33
2022-11-07T01:06:26.573Z,79.38
2022-11-07T01:06:46.636Z,79.26
2022-11-07T01:07:06.701Z,79.34
2022-11-07T01:07:26.788Z,79.35
2022-11-07T01:07:46.859Z,79.43
2022-11-07T01:08:06.917Z,79.39
2022-11-07T01:08:26.979Z,79.35
2022-11-07T01:08:47.042Z,79.5
2022-11-07T01:09:07.128Z,79.48
2022-11-07T01:09:27.196Z,79.49
2022-11-07T01:09:47.264Z,79.48
2022-11-07T01:10:07.338Z,79.51
2022-11-07T01:10:27.390Z,79.55
2022-11-07T01:10:47.441Z,79.55
2022-11-07T01:11:07.528Z,79.51
2022-11-07T01:11:27.602Z,79.52
2022-11-07T01:11:47.688Z,79.68
2022-11-07T01:12:07.747Z,79.65
2022-11-07T01:12:27.787Z,79.65
2022-11-07T01:12:47.863Z,79.62
2022-11-07T01:13:07.922Z,79.68
2022-11-07T01:13:28.002Z,79.75
2022-11-07T01:13:48.040Z,79.74
2022-11-07T01:14:08.112Z,79.75
2022-11-07T01:14:28.179Z,79.82
2022-11-07T01:14:48.265Z,79.91
2022-11-07T01:15:08.330Z,79.81
2022-11-07T01:15:28.404Z,79.78
2022-11-07T01:15:48.460Z,79.78
2022-11-07T01:16:08.510Z,79.78
2022-11-07T01:16:28.563Z,79.73
2022-11-07T01:16:48.636Z,79.64
2022-11-07T01:17:08.716Z,79.67
2022-11-07T01:17:28.780Z,79.59
2022-11-07T01:17:48.832Z,79.55
2022-11-07T01:18:08.904Z,79.56
2022-11-07T01:18:28.975Z,79.55
2022-11-07T01:18:49.063Z,79.6
2022-11-07T01:19:09.108Z,79.65
2022-11-07T01:19:29.175Z,79.66
2022-11-07T01:19:49.253Z,79.58
2022-11-07T01:20:09.314Z,79.59
2022-11-07T01:20:29.373Z,79.64
2022-11-07T01:20:49.442Z,79.73
2022-11-07T01:21:15.135Z,79.75
2022-11-07T01:21:29.550Z,79.66
2022-11-07T01:21:49.609Z,79.67
2022-11-07T01:22:09.683Z,79.41
2022-11-07T01:22:29.749Z,79.46
2022-11-07T01:22:49.831Z,79.54
2022-11-07T01:23:09.878Z,79.61
2022-11-07T01:23:29.928Z,79.6
2022-11-07T01:23:50.025Z,79.66
2022-11-07T01:24:10.095Z,79.66
2022-11-07T01:24:30.153Z,79.69
2022-11-07T01:24:50.196Z,79.72
2022-11-07T01:25:10.257Z,79.77
2022-11-07T01:25:30.322Z,79.59
2022-11-07T01:25:50.412Z,79.38
2022-11-07T01:26:10.464Z,79.44
2022-11-07T01:26:30.532Z,79.51
2022-11-07T01:26:50.603Z,79.55
2022-11-07T01:27:10.727Z,79.61
2022-11-07T01:27:30.750Z,79.62
2022-11-07T01:27:50.828Z,79.56
2022-11-07T01:28:10.880Z,79.57
2022-11-07T01:28:30.950Z,79.61
2022-11-07T01:28:51.023Z,79.44
2022-11-07T01:29:11.105Z,79.51
2022-11-07T01:29:31.166Z,79.44
2022-11-07T01:29:51.256Z,79.39
2022-11-07T01:30:11.331Z,79.45
2022-11-07T01:30:31.384Z,79.49
2022-11-07T01:30:51.451Z,79.6
2022-11-07T01:31:11.526Z,79.6
2022-11-07T01:31:31.571Z,79.61
2022-11-07T01:31:51.626Z,79.69
2022-11-07T01:32:11.681Z,79.76
2022-11-07T01:32:31.747Z,79.71
2022-11-07T01:32:51.816Z,79.73
2022-11-07T01:33:12.227Z,79.67
2022-11-07T01:33:31.963Z,79.65
2022-11-07T01:33:51.999Z,79.64
2022-11-07T01:34:12.058Z,79.68
2022-11-07T01:34:32.135Z,79.8
2022-11-07T01:34:52.173Z,79.85
2022-11-07T01:35:12.242Z,79.84
2022-11-07T01:35:32.338Z,79.77
2022-11-07T01:35:52.394Z,79.84
2022-11-07T01:36:12.465Z,79.88
2022-11-07T01:36:32.562Z,79.91
2022-11-07T01:36:52.598Z,79.84
2022-11-07T01:37:12.650Z,79.84
2022-11-07T01:37:32.708Z,79.68
2022-11-07T01:37:52.775Z,79.77
2022-11-07T01:38:12.836Z,79.75
2022-11-07T01:38:32.968Z,79.79
2022-11-07T01:38:52.956Z,79.85
2022-11-07T01:39:13.003Z,79.93
2022-11-07T01:39:33.073Z,79.99
2022-11-07T01:39:53.145Z,79.95
2022-11-07T01:40:13.190Z,79.97
2022-11-07T01:40:33.250Z,80
2022-11-07T01:40:53.340Z,80.06
2022-11-07T01:41:13.387Z,80.07
2022-11-07T01:41:33.455Z,80.11
2022-11-07T01:41:53.523Z,80.12
2022-11-07T01:42:13.582Z,80.13
2022-11-07T01:42:33.642Z,80.16
2022-11-07T01:42:53.706Z,80.14
2022-11-07T01:43:13.972Z,80.14
2022-11-07T01:43:33.828Z,80.11
2022-11-07T01:43:53.889Z,80.14
2022-11-07T01:44:13.957Z,80.18
2022-11-07T01:44:34.012Z,80.16
2022-11-07T01:44:54.064Z,80.24
2022-11-07T01:45:14.122Z,80.29
2022-11-07T01:45:34.279Z,80.33
2022-11-07T01:45:54.263Z,80.26
2022-11-07T01:46:14.330Z,80.32
2022-11-07T01:46:34.403Z,80.31
2022-11-07T01:46:54.527Z,80.35
2022-11-07T01:47:14.595Z,80.4
2022-11-07T01:47:34.666Z,80.43
2022-11-07T01:47:54.751Z,80.42
2022-11-07T01:48:14.836Z,80.4
2022-11-07T01:48:35.058Z,80.38
2022-11-07T01:48:55.034Z,80.34
2022-11-07T01:49:15.098Z,80.43
2022-11-07T01:49:35.171Z,80.4
2022-11-07T01:49:55.241Z,80.37
2022-11-07T01:50:15.313Z,80.42
2022-11-07T01:50:35.389Z,80.45
2022-11-07T01:50:55.460Z,80.46
2022-11-07T01:51:15.525Z,80.48
2022-11-07T01:51:35.605Z,80.46
2022-11-07T01:51:55.698Z,80.47
2022-11-07T01:52:15.781Z,80.51
2022-11-07T01:52:35.881Z,80.54
2022-11-07T01:52:55.939Z,80.5
2022-11-07T01:53:16.319Z,80.59
2022-11-07T01:53:36.100Z,80.55
2022-11-07T01:53:56.185Z,80.58
2022-11-07T01:54:16.265Z,80.63
2022-11-07T01:54:36.340Z,80.7
2022-11-07T01:54:56.396Z,80.67
2022-11-07T01:55:16.472Z,80.58
2022-11-07T01:55:36.548Z,80.6
2022-11-07T01:55:56.676Z,80.67
2022-11-07T01:56:16.695Z,80.66
2022-11-07T01:56:36.785Z,80.59
2022-11-07T01:56:56.854Z,80.67
2022-11-07T01:57:16.946Z,80.69
2022-11-07T01:57:37.022Z,80.55
2022-11-07T01:57:57.100Z,80.54
2022-11-07T01:58:17.150Z,80.56
2022-11-07T01:58:37.208Z,80.54
2022-11-07T01:58:57.279Z,80.61
2022-11-07T01:59:17.344Z,80.6
2022-11-07T01:59:37.533Z,80.57
2022-11-07T01:59:57.478Z,80.6
2022-11-07T02:00:17.538Z,80.59
2022-11-07T02:00:37.598Z,80.62
2022-11-07T02:00:57.678Z,80.68
2022-11-07T02:01:17.842Z,80.58
2022-11-07T02:01:37.927Z,80.57
2022-11-07T02:01:58.039Z,80.58
2022-11-07T02:02:18.367Z,80.62
2022-11-07T02:02:38.311Z,80.56
2022-11-07T02:02:58.391Z,80.65
2022-11-07T02:03:18.417Z,80.7
2022-11-07T02:03:38.350Z,80.69
2022-11-07T02:03:58.459Z,80.6
2022-11-07T02:04:18.541Z,80.69
2022-11-07T02:04:38.629Z,80.79
2022-11-07T02:04:58.702Z,80.7
2022-11-07T02:05:18.772Z,80.71
2022-11-07T02:05:38.857Z,80.69
2022-11-07T02:05:58.964Z,80.62
2022-11-07T02:06:19.007Z,80.64
2022-11-07T02:06:39.070Z,80.67
2022-11-07T02:06:59.165Z,80.78
2022-11-07T02:07:19.263Z,80.77
2022-11-07T02:07:39.342Z,80.72
2022-11-07T02:07:59.394Z,80.62
2022-11-07T02:08:19.468Z,80.65
2022-11-07T02:08:39.529Z,80.71
2022-11-07T02:08:59.600Z,80.72
2022-11-07T02:09:19.673Z,80.79
2022-11-07T02:09:39.719Z,80.72
2022-11-07T02:09:59.801Z,80.67
2022-11-07T02:10:19.870Z,80.69
2022-11-07T02:10:39.916Z,80.68
2022-11-07T02:10:59.959Z,80.69
2022-11-07T02:11:20.045Z,80.67
2022-11-07T02:11:40.120Z,80.78
2022-11-07T02:12:00.172Z,80.83
2022-11-07T02:12:20.326Z,80.91
2022-11-07T02:12:40.320Z,80.92
2022-11-07T02:13:00.398Z,80.98
2022-11-07T02:13:20.466Z,81.01
2022-11-07T02:13:40.538Z,80.92
2022-11-07T02:14:00.602Z,80.98
2022-11-07T02:14:20.660Z,80.96
2022-11-07T02:14:40.741Z,80.92
2022-11-07T02:15:00.788Z,80.92
2022-11-07T02:15:20.846Z,81.14
2022-11-07T02:15:40.904Z,81.13
2022-11-07T02:16:00.941Z,81.09
2022-11-07T02:16:21.022Z,81.1
2022-11-07T02:16:41.117Z,81.08
2022-11-07T02:17:01.179Z,81.08
2022-11-07T02:17:21.244Z,81.02
2022-11-07T02:17:41.313Z,81.07
2022-11-07T02:18:01.377Z,81.06
2022-11-07T02:18:21.430Z,81.06
2022-11-07T02:18:41.502Z,81.03
2022-11-07T02:19:01.627Z,81
2022-11-07T02:19:21.610Z,80.96
2022-11-07T02:19:41.703Z,80.93
2022-11-07T02:20:01.745Z,80.95
2022-11-07T02:20:21.833Z,80.87
2022-11-07T02:20:41.887Z,80.86
2022-11-07T02:21:01.947Z,80.89
2022-11-07T02:21:22.014Z,80.82
2022-11-07T02:21:42.073Z,80.74
2022-11-07T02:22:02.132Z,80.61
2022-11-07T02:22:22.213Z,80.6
2022-11-07T02:22:42.259Z,80.6
2022-11-07T02:23:02.326Z,80.61
2022-11-07T02:23:22.382Z,80.51
2022-11-07T02:23:42.452Z,80.38
2022-11-07T02:24:02.564Z,80.46
2022-11-07T02:24:22.653Z,80.48
2022-11-07T02:24:42.745Z,80.44
2022-11-07T02:25:02.856Z,80.52
2022-11-07T02:25:23.023Z,80.53
2022-11-07T02:25:43.031Z,80.46
2022-11-07T02:26:03.100Z,80.52
2022-11-07T02:26:23.155Z,80.49
2022-11-07T02:26:43.218Z,80.48
2022-11-07T02:27:03.290Z,80.37
2022-11-07T02:27:23.362Z,80.43
2022-11-07T02:27:43.447Z,80.37
2022-11-07T02:28:03.538Z,80.25
2022-11-07T02:28:23.617Z,80.2
2022-11-07T02:28:43.708Z,80.16
2022-11-07T02:29:03.760Z,80.29
2022-11-07T02:29:23.833Z,80.28
2022-11-07T02:29:43.931Z,80.17
2022-11-07T02:30:04.032Z,80.05
2022-11-07T02:30:24.135Z,79.97
2022-11-07T02:30:44.239Z,79.98
2022-11-07T02:31:04.296Z,79.93
2022-11-07T02:31:24.398Z,79.91
2022-11-07T02:31:44.535Z,79.85
2022-11-07T02:32:04.599Z,79.9
2022-11-07T02:32:24.676Z,79.92
2022-11-07T02:32:44.758Z,79.91
2022-11-07T02:33:04.818Z,79.79
2022-11-07T02:33:24.886Z,79.82
2022-11-07T02:33:44.953Z,79.75
2022-11-07T02:34:05.047Z,79.77
2022-11-07T02:34:25.094Z,79.74
2022-11-07T02:34:45.180Z,79.77
2022-11-07T02:35:05.243Z,79.72
2022-11-07T02:35:25.341Z,79.7
2022-11-07T02:35:45.424Z,79.71
2022-11-07T02:36:05.487Z,79.52
2022-11-07T02:36:25.583Z,79.49
2022-11-07T02:36:45.649Z,79.52
2022-11-07T02:37:05.743Z,79.42
2022-11-07T02:37:25.807Z,79.59
2022-11-07T02:37:45.887Z,79.55
2022-11-07T02:38:05.962Z,79.64
2022-11-07T02:38:26.060Z,79.64
2022-11-07T02:38:46.108Z,79.65
2022-11-07T02:39:06.192Z,79.61
2022-11-07T02:39:26.264Z,79.57
2022-11-07T02:39:46.337Z,79.61
2022-11-07T02:40:06.403Z,79.52
2022-11-07T02:40:26.493Z,79.4
2022-11-07T02:40:46.558Z,79.35
2022-11-07T02:41:06.642Z,79.31
2022-11-07T02:41:26.743Z,79.4
2022-11-07T02:41:46.808Z,79.41
2022-11-07T02:42:06.914Z,79.42
2022-11-07T02:42:27.077Z,79.38
2022-11-07T02:42:47.074Z,79.44
2022-11-07T02:43:07.147Z,79.52
2022-11-07T02:43:27.250Z,79.47
2022-11-07T02:43:47.319Z,79.53
2022-11-07T02:44:07.410Z,79.54
2022-11-07T02:44:27.478Z,79.54
2022-11-07T02:44:47.557Z,79.53
2022-11-07T02:45:07.632Z,79.53
2022-11-07T02:45:27.733Z,79.58
2022-11-07T02:45:47.772Z,79.5
2022-11-07T02:46:07.845Z,79.59
2022-11-07T02:46:27.930Z,79.69
2022-11-07T02:46:48.038Z,79.78
2022-11-07T02:47:08.091Z,79.92
2022-11-07T02:47:28.187Z,79.85
2022-11-07T02:47:48.270Z,79.78
2022-11-07T02:48:08.363Z,79.69
2022-11-07T02:48:28.426Z,79.75
2022-11-07T02:48:48.535Z,79.76
2022-11-07T02:49:08.587Z,79.72
2022-11-07T02:49:28.687Z,79.68
2022-11-07T02:49:48.777Z,79.73
2022-11-07T02:50:08.854Z,79.66
2022-11-07T02:50:28.927Z,79.76
2022-11-07T02:50:49.006Z,79.68
2022-11-07T02:51:09.080Z,79.67
2022-11-07T02:51:29.164Z,79.71
2022-11-07T02:51:49.265Z,79.7
2022-11-07T02:52:09.323Z,79.65
2022-11-07T02:52:29.406Z,79.69
2022-11-07T02:52:49.522Z,79.7
2022-11-07T02:53:09.580Z,79.85
2022-11-07T02:53:29.668Z,79.74
2022-11-07T02:53:49.771Z,79.73
2022-11-07T02:54:09.852Z,79.76
2022-11-07T02:54:29.917Z,79.83
2022-11-07T02:54:49.990Z,79.82
2022-11-07T02:55:10.036Z,79.87
2022-11-07T02:55:30.138Z,79.89
2022-11-07T02:55:50.195Z,79.84
2022-11-07T02:56:10.306Z,79.87
2022-11-07T02:56:30.383Z,79.91
2022-11-07T02:56:50.470Z,79.94
2022-11-07T02:57:10.569Z,79.93
2022-11-07T02:57:30.620Z,80.04
2022-11-07T02:57:50.678Z,80.1
2022-11-07T02:58:10.735Z,80.03
2022-11-07T02:58:30.810Z,80.07
2022-11-07T02:58:50.864Z,80.14
2022-11-07T02:59:10.926Z,80.27
2022-11-07T02:59:30.989Z,80.06
2022-11-07T02:59:51.063Z,79.93
2022-11-07T03:00:11.135Z,80.03
2022-11-07T03:00:31.207Z,79.96
2022-11-07T03:00:51.275Z,80.1
2022-11-07T03:01:11.374Z,80.06
2022-11-07T03:01:31.500Z,80.04
2022-11-07T03:01:51.583Z,80.11
2022-11-07T03:02:11.703Z,80.2
2022-11-07T03:02:31.798Z,80.2
2022-11-07T03:02:51.822Z,80.21
2022-11-07T03:03:12.036Z,80.02
2022-11-07T03:03:31.834Z,80.14
2022-11-07T03:03:51.935Z,80.19
2022-11-07T03:04:11.974Z,80.06
2022-11-07T03:04:32.051Z,80.15
2022-11-07T03:04:52.106Z,80.1
2022-11-07T03:05:12.163Z,80.21
2022-11-07T03:05:32.225Z,80.13
2022-11-07T03:05:52.286Z,80.08
2022-11-07T03:06:12.339Z,80.11
2022-11-07T03:06:32.453Z,80.1
2022-11-07T03:06:52.433Z,80.14
2022-11-07T03:07:12.513Z,80.29
2022-11-07T03:07:32.575Z,80.33
2022-11-07T03:07:52.663Z,80.34
2022-11-07T03:08:12.717Z,80.35
2022-11-07T03:08:32.791Z,80.26
2022-11-07T03:08:52.862Z,80.28
2022-11-07T03:09:12.902Z,80.34
2022-11-07T03:09:33.013Z,80.36
2022-11-07T03:09:53.079Z,80.32
2022-11-07T03:10:13.157Z,80.24
2022-11-07T03:10:33.221Z,80.26
2022-11-07T03:10:53.279Z,80.36
2022-11-07T03:11:13.350Z,80.41
2022-11-07T03:11:33.443Z,80.56
2022-11-07T03:11:53.498Z,80.55
2022-11-07T03:12:13.593Z,80.61
2022-11-07T03:12:33.697Z,80.68
2022-11-07T03:12:53.761Z,80.72
2022-11-07T03:13:14.095Z,80.71
2022-11-07T03:13:33.859Z,80.75
2022-11-07T03:13:53.932Z,80.74
2022-11-07T03:14:13.993Z,80.85
2022-11-07T03:14:34.082Z,80.79
2022-11-07T03:14:54.130Z,80.85
2022-11-07T03:15:14.157Z,80.92
2022-11-07T03:15:34.216Z,80.98
2022-11-07T03:15:54.257Z,81.01
2022-11-07T03:16:14.329Z,80.98
2022-11-07T03:16:34.399Z,81
2022-11-07T03:16:54.466Z,81.07
2022-11-07T03:17:14.551Z,81.18
2022-11-07T03:17:34.589Z,81.29
2022-11-07T03:17:54.677Z,81.32
2022-11-07T03:18:14.750Z,81.3
2022-11-07T03:18:34.892Z,81.28
2022-11-07T03:18:54.898Z,81.28
2022-11-07T03:19:14.938Z,81.32
2022-11-07T03:19:34.999Z,81.36
2022-11-07T03:19:55.084Z,81.4
2022-11-07T03:20:15.162Z,81.39
2022-11-07T03:20:35.252Z,81.43
2022-11-07T03:20:55.266Z,81.45
2022-11-07T03:21:15.328Z,81.45
2022-11-07T03:21:35.391Z,81.49
2022-11-07T03:21:55.454Z,81.55
2022-11-07T03:22:15.524Z,81.56
2022-11-07T03:22:35.599Z,81.58
2022-11-07T03:22:55.666Z,81.68
2022-11-07T03:23:16.167Z,81.76
2022-11-07T03:23:35.804Z,81.88
2022-11-07T03:23:55.843Z,81.95
2022-11-07T03:24:15.919Z,81.9
2022-11-07T03:24:36.066Z,81.93
2022-11-07T03:24:56.047Z,81.95
2022-11-07T03:25:16.121Z,81.98
2022-11-07T03:25:36.185Z,81.97
2022-11-07T03:25:56.247Z,81.97
2022-11-07T03:26:16.302Z,82.01
2022-11-07T03:26:36.364Z,82.02
2022-11-07T03:26:56.431Z,82.08
2022-11-07T03:27:16.518Z,82.17
2022-11-07T03:27:36.614Z,82.22
2022-11-07T03:27:56.654Z,82.29
2022-11-07T03:28:16.745Z,82.3
2022-11-07T03:28:36.786Z,82.28
2022-11-07T03:28:56.846Z,82.27
2022-11-07T03:29:16.917Z,82.23
2022-11-07T03:29:37.002Z,82.22
2022-11-07T03:29:57.074Z,82.23
2022-11-07T03:30:17.119Z,82.22
2022-11-07T03:30:37.180Z,82.23
2022-11-07T03:30:57.231Z,82.3
2022-11-07T03:31:17.297Z,82.28
2022-11-07T03:31:37.332Z,82.3
2022-11-07T03:31:57.417Z,82.37
2022-11-07T03:32:17.505Z,82.38
2022-11-07T03:32:37.561Z,82.41
2022-11-07T03:32:57.641Z,82.38
2022-11-07T03:33:17.978Z,82.43
2022-11-07T03:33:37.780Z,82.46
2022-11-07T03:33:57.856Z,82.54
2022-11-07T03:34:17.895Z,82.58
2022-11-07T03:34:37.961Z,82.67
2022-11-07T03:34:58.029Z,82.75
2022-11-07T03:35:18.117Z,82.71
2022-11-07T03:35:38.202Z,82.78
2022-11-07T03:35:58.272Z,82.8
2022-11-07T03:36:18.343Z,82.81
2022-11-07T03:36:38.411Z,82.87
2022-11-07T03:36:58.452Z,82.92
2022-11-07T03:37:18.526Z,83.01
2022-11-07T03:37:38.589Z,83.08
2022-11-07T03:37:58.677Z,83.06
2022-11-07T03:38:18.767Z,83.06
2022-11-07T03:38:38.916Z,83.08
2022-11-07T03:38:58.905Z,83.08
2022-11-07T03:39:24.602Z,83.12
2022-11-07T03:39:39.053Z,83.18
2022-11-07T03:39:59.085Z,83.15
2022-11-07T03:40:19.141Z,83.15
2022-11-07T03:40:39.226Z,83.22
2022-11-07T03:40:59.305Z,83.29
2022-11-07T03:41:19.362Z,83.32
2022-11-07T03:41:39.442Z,83.47
2022-11-07T03:41:59.544Z,83.53
2022-11-07T03:42:19.626Z,83.53
2022-11-07T03:42:39.723Z,83.57
2022-11-07T03:42:59.776Z,83.58
2022-11-07T03:43:19.832Z,83.61
2022-11-07T03:43:39.901Z,83.61
2022-11-07T03:43:59.994Z,83.62
2022-11-07T03:44:20.073Z,83.7
2022-11-07T03:44:40.139Z,83.7
2022-11-07T03:45:00.214Z,83.68
2022-11-07T03:45:20.252Z,83.73
2022-11-07T03:45:40.336Z,83.8
2022-11-07T03:46:00.420Z,83.83
2022-11-07T03:46:20.442Z,83.83
2022-11-07T03:46:40.533Z,83.87
2022-11-07T03:47:00.594Z,83.95
2022-11-07T03:47:20.662Z,84.06
2022-11-07T03:47:40.716Z,84.07
2022-11-07T03:48:00.788Z,84.17
2022-11-07T03:48:20.836Z,84.12
2022-11-07T03:48:40.915Z,84.14
2022-11-07T03:49:00.986Z,84.2
2022-11-07T03:49:21.050Z,84.14
2022-11-07T03:49:41.189Z,84.18
2022-11-07T03:50:01.198Z,84.17
2022-11-07T03:50:21.238Z,84.23
2022-11-07T03:50:41.304Z,84.26
2022-11-07T03:51:01.370Z,84.26
2022-11-07T03:51:21.435Z,84.26
2022-11-07T03:51:41.505Z,84.34
2022-11-07T03:52:01.573Z,84.32
2022-11-07T03:52:21.634Z,84.36
2022-11-07T03:52:41.687Z,84.43
2022-11-07T03:53:01.754Z,84.42
2022-11-07T03:53:25.399Z,84.46
2022-11-07T03:53:41.867Z,84.49
2022-11-07T03:54:01.944Z,84.55
2022-11-07T03:54:21.998Z,84.46
2022-11-07T03:54:42.067Z,84.43
2022-11-07T03:55:02.153Z,84.56
2022-11-07T03:55:22.144Z,84.59
2022-11-07T03:55:42.230Z,84.62
2022-11-07T03:56:02.327Z,84.64
2022-11-07T03:56:22.364Z,84.66
2022-11-07T03:56:42.445Z,84.7
2022-11-07T03:57:02.531Z,84.71
2022-11-07T03:57:22.585Z,84.69
2022-11-07T03:57:42.655Z,84.72
2022-11-07T03:58:02.712Z,84.76
2022-11-07T03:58:22.788Z,84.78
2022-11-07T03:58:42.824Z,84.87
2022-11-07T03:59:02.908Z,84.84
2022-11-07T03:59:22.987Z,84.83
2022-11-07T03:59:43.049Z,84.88
2022-11-07T04:00:03.115Z,84.9
2022-11-07T04:00:23.150Z,84.96
2022-11-07T04:00:43.302Z,85.02
2022-11-07T04:01:03.262Z,85.09
2022-11-07T04:01:23.402Z,85.05
2022-11-07T04:01:43.521Z,85.06
2022-11-07T04:02:03.670Z,85.12
2022-11-07T04:02:23.716Z,85.15
2022-11-07T04:02:43.848Z,85.2
2022-11-07T04:03:03.776Z,85.25
2022-11-07T04:03:23.757Z,85.3
2022-11-07T04:03:43.795Z,85.29
2022-11-07T04:04:03.867Z,85.26
2022-11-07T04:04:23.949Z,85.3
2022-11-07T04:04:43.993Z,85.35
2022-11-07T04:05:04.070Z,85.33
2022-11-07T04:05:24.145Z,85.39
2022-11-07T04:05:44.206Z,85.37
2022-11-07T04:06:04.255Z,85.44
2022-11-07T04:06:24.332Z,85.41
2022-11-07T04:06:44.386Z,85.4
2022-11-07T04:07:04.465Z,85.43
2022-11-07T04:07:24.520Z,85.42
2022-11-07T04:07:44.592Z,85.47
2022-11-07T04:08:04.649Z,85.49
2022-11-07T04:08:24.717Z,85.46
2022-11-07T04:08:44.775Z,85.53
2022-11-07T04:09:04.818Z,85.51
2022-11-07T04:09:24.900Z,85.58
2022-11-07T04:09:44.974Z,85.62
2022-11-07T04:10:05.022Z,85.6
2022-11-07T04:10:25.106Z,85.64
2022-11-07T04:10:45.167Z,85.72
2022-11-07T04:11:05.231Z,85.76
2022-11-07T04:11:25.300Z,85.8
2022-11-07T04:11:45.356Z,85.88
2022-11-07T04:12:05.418Z,85.87
2022-11-07T04:12:25.505Z,85.93
2022-11-07T04:12:45.553Z,85.95
2022-11-07T04:13:05.616Z,85.93
2022-11-07T04:13:25.688Z,85.93
2022-11-07T04:13:45.743Z,85.95
2022-11-07T04:14:05.818Z,85.99
2022-11-07T04:14:25.877Z,86.01
2022-11-07T04:14:45.944Z,86.02
2022-11-07T04:15:06.023Z,85.98
2022-11-07T04:15:26.075Z,86.11
2022-11-07T04:15:46.189Z,86.25
2022-11-07T04:16:06.220Z,86.29
2022-11-07T04:16:26.260Z,86.33
2022-11-07T04:16:46.326Z,86.34
2022-11-07T04:17:06.393Z,86.41
2022-11-07T04:17:26.462Z,86.43
2022-11-07T04:17:46.518Z,86.49
2022-11-07T04:18:06.587Z,86.55
2022-11-07T04:18:26.656Z,86.58
2022-11-07T04:18:46.721Z,86.58
2022-11-07T04:19:06.791Z,86.59
2022-11-07T04:19:26.927Z,86.66